Portada
METAR-TAF:

METAR-TAF

Aeroports :

Base aèria

Tafraoui, Algèria

latitud: 35-32-33N, longitud: 000-31-56W, altitud: 112 m

Observació

L'informe es va fer fa 42 minuts, a les 18:00 UTC
Vent 6 kt del Est/Nord-Est
Temperatura 18°C
Humitat 94%
Pressió 1013 hPa
Visibilitat 10 km o més
Escasses núvols a una alçada de 2300 ft, Cumulus congestus.
Núvols disperses a una alçada de 2600 ft

METAR: DAOL 191800Z 06006KT 9999 FEW023TCU SCT026 18/17 Q1013

Hora: 19:42 (18:42 UTC)


TAF: manca

Observacions i pronòstics meteorològics de més de 4000 aeroports (METAR i TAF).

Les estacions disponibles són els punts grocs i vermells al mapa.

Posi el ratolí al punt desitjat per veure el nom de l'estació.

Feu clic per veure les observacions i els pronòstics meteorològics.

Per canviar el mapa: feu clic els botons verds amb una creu de color negre per apropar; al botó verd amb un guió per allunyar la imatge; o en les fletxes verdes per a mapes adjacents.


METAR-TAF: